Terminal Aerodrome Forecast
Issued by NWS Tampa Bay Area, FL

Home | Current Version | Previous Version | Text Only | Print | Product List | Glossary On
Versions: 1 2 3 4 5 6 7 8 9 10 11 12 13 14
000
FTUS42 KTBW 180603 AAA
TAFSRQ
TAF AMD
KSRQ 180603Z 1806/1906 VRB03KT P6SM FEW050 SCT250
     FM181400 18006KT P6SM SCT030 SCT250
     FM181700 23009KT P6SM SCT040 SCT250
     FM182200 27008KT P6SM FEW050 SCT250
     FM190100 VRB03KT P6SM FEW050 SCT250=

USA.gov is the U.S. government's official web portal to all federal, state and local government web resources and services.